Dayton, OH

1:05 PM EDT on September 02, 2014 (GMT -0400)
South Dayton Suburbs | Change Station
CLOSE
Current Station
Personal Weather Station
Location: Moraine, OH
Elevation: 751 ft
Nearby Weather Stations

Elev 751 ft 39.69 °N, 84.21 °W | Updated 0 second ago

Mostly Cloudy
Mostly Cloudy
75.8 °F
Feels Like 77 °F
N
6.0
Wind Variable Wind from SW
Gusts 8.0 mph

Today
High -- | Low -- °F
--% Chance of Precip.
Yesterday
High -- | Low -- °F
Precip. -- in
7:05 AM 8:06 PM
First Quarter, 53% visible
Pressure 29.94 in
Visibility 10.0 miles
Clouds Scattered Clouds 1800 ft
Mostly Cloudy 8000 ft
Heat Index 77 °F
Dew Point 66 °F
Humidity 73%
Rainfall 0.89 in
Snow Depth Not available.
UV 5 out of 12
Pollen 2.80 out of 12
Ozone Good
PM2.5 Good
Flu Activity Not available.
METAR KMGY 021653Z AUTO 24013KT 10SM SCT018 BKN080 24/19 A2996 RMK AO2 SLP138 T02390194

More Conditions Fewer Conditions

Pressure 29.94 in
Visibility 10.0 miles
Clouds Scattered Clouds 1800 ft
Mostly Cloudy 8000 ft
Heat Index 77 °F
Dew Point 66 °F
Humidity 73%
Rainfall 0.89 in
Snow Depth Not available.
UV 5 out of 12
Pollen 2.80 out of 12
Ozone Good
PM2.5 Good
Flu Activity Not available.
METAR KMGY 021653Z AUTO 24013KT 10SM SCT018 BKN080 24/19 A2996 RMK AO2 SLP138 T02390194

More Conditions Fewer Conditions

10-Day Weather Forecast

Almanac

Astronomy

Sep. 02, 2014 Rise Set
Actual Time 7:05 AM EDT 8:06 PM EDT
Civil Twilight 6:38 AM EDT 8:33 PM EDT
Nautical Twilight 6:05 AM EDT 9:06 PM EDT
Astronomical Twilight 5:31 AM EDT 9:40 PM EDT
Moon 2:48 PM EDT 12:09 AM EDT
Length of Visible Light 13h 55m
Length of Day
13h 00m
Tomorrow will be 2m 31s shorter.
First Quarter, 53% of the Moon is Illuminated
Today
First Quarter
Sep 8
Full
Sep 15
Last Quarter
Sep 24
New
Oct 1
First Quarter

Today's Extremes

State Highs State Lows

Community

WunderPhotos

Upload Photos

1,749,720 photos uploaded!

Nearby

Air Quality

  Air Quality AQ Index Pollutant
Yesterday Good
PM2.5
Yesterday Good
OZONE
Current Good
PM2.5
Current Good
OZONE
Tuesday Moderate
PM2.5
Tuesday Good
OZONE

Snow Depth

Station Depth Elevation
No new snow has been reported.

Earthquake Activity

City Distance Mag. Time & Date
No recent earthquake activity has been reported nearby.
Minimum magnitude displayed is 2.5.

Coastal Water Temperatures

Place Temperature
No Stations Reporting

Nearby Weather Stations